Time;durP1;ratioP1;P1;durP2;ratioP2;P2;SDS_P1;SDS_P2;PMS_P1;PMS_P2;Temp;Humidity;BMP_temperature;BMP_pressure;BME280_temperature;BME280_humidity;BME280_pressure;Samples;Min_cycle;Max_cycle;Signal;HPM_P1;HPM_P2
2023/10/30 00:00:34;;;;;;;;;;;;;;;20.59;29.52;98370.78;4952863;29;1402;-78
2023/10/30 00:02:59;;;;;;;;;;;;;;;20.72;29.07;98380.25;4956550;28;1620;-78
2023/10/30 00:05:25;;;;;;;;;;;;;;;20.73;29.04;98375.41;4959136;28;1441;-78
2023/10/30 00:07:51;;;;;;;;;;;;;;;20.60;29.44;98372.38;4958477;28;1430;-78
2023/10/30 00:10:16;;;;;;;;;;;;;;;20.59;29.56;98370.78;4974922;28;1422;-78
2023/10/30 00:12:42;;;;;;;;;;;;;;;20.72;29.01;98374.59;4959007;28;1578;-78
2023/10/30 00:15:08;;;;;;;;;;;;;;;20.88;29.07;98381.59;4958573;28;1899;-78
2023/10/30 00:17:34;;;;;;;;;;;;;;;20.93;28.79;98366.97;4989548;28;1370;-78
2023/10/30 00:19:59;;;;;;;;;;;;;;;20.87;29.09;98368.69;4961828;28;1470;-78
2023/10/30 00:22:25;;;;;;;;;;;;;;;20.67;29.26;98363.78;5007091;28;1580;-78
2023/10/30 00:24:50;;;;;;;;;;;;;;;20.75;29.16;98362.44;5021572;28;1266;-78
2023/10/30 00:27:16;;;;;;;;;;;;;;;20.66;29.13;98365.00;5037825;28;1538;-78
2023/10/30 00:29:42;;;;;;;;;;;;;;;20.68;29.12;98351.25;5021932;28;1591;-78
2023/10/30 00:32:08;;;;;;;;;;;;;;;20.47;29.74;98351.63;5037618;28;1337;-78
2023/10/30 00:34:34;;;;;;;;;;;;;;;20.80;29.02;98358.31;5037699;28;1967;-78
2023/10/30 00:36:59;;;;;;;;;;;;;;;20.63;29.42;98354.56;5021773;28;1381;-78
2023/10/30 00:39:25;;;;;;;;;;;;;;;20.93;29.10;98362.09;5021152;28;1747;-78
2023/10/30 00:41:51;;;;;;;;;;;;;;;20.56;29.62;98360.31;5038065;28;1464;-78
2023/10/30 00:44:16;;;;;;;;;;;;;;;20.70;29.41;98353.66;5037648;28;1431;-78
2023/10/30 00:46:43;;;;;;;;;;;;;;;20.71;29.35;98358.84;5021159;28;1573;-78
2023/10/30 00:49:08;;;;;;;;;;;;;;;20.62;29.15;98355.78;5021869;28;1564;-78
2023/10/30 00:51:35;;;;;;;;;;;;;;;20.68;29.52;98345.59;5037616;28;1695;-77
2023/10/30 00:54:00;;;;;;;;;;;;;;;20.54;29.66;98357.94;5021504;28;1886;-78
2023/10/30 00:56:26;;;;;;;;;;;;;;;20.74;29.30;98355.19;5055401;28;1527;-78
2023/10/30 00:58:51;;;;;;;;;;;;;;;20.57;29.39;98356.28;5037335;28;1628;-78
2023/10/30 01:01:17;;;;;;;;;;;;;;;20.49;29.85;98354.81;5037804;28;1439;-77
2023/10/30 01:03:46;;;;;;;;;;;;;;;20.85;29.15;98360.66;5037726;28;1432;-78
2023/10/30 01:06:11;;;;;;;;;;;;;;;20.83;29.07;98360.28;5055115;28;1501;-78
2023/10/30 01:08:37;;;;;;;;;;;;;;;20.65;29.22;98356.97;5037416;28;1502;-78
2023/10/30 01:11:02;;;;;;;;;;;;;;;20.91;28.96;98352.47;5021157;28;1510;-78
2023/10/30 01:13:29;;;;;;;;;;;;;;;20.64;29.61;98359.00;5055199;28;1325;-78
2023/10/30 01:15:55;;;;;;;;;;;;;;;20.62;29.36;98354.97;5021081;28;1902;-78
2023/10/30 01:18:21;;;;;;;;;;;;;;;20.70;29.19;98362.91;5054563;28;1431;-78
2023/10/30 01:20:47;;;;;;;;;;;;;;;20.45;29.80;98354.03;5021141;28;1524;-77
2023/10/30 01:23:16;;;;;;;;;;;;;;;20.62;29.30;98352.94;5021403;28;1394;-77
2023/10/30 01:25:46;;;;;;;;;;;;;;;20.46;29.65;98359.28;5020905;28;1884;-78
2023/10/30 01:28:11;;;;;;;;;;;;;;;20.78;29.08;98367.25;5021140;28;1388;-78
2023/10/30 01:30:38;;;;;;;;;;;;;;;20.50;29.80;98362.06;5004173;28;1265;-78
2023/10/30 01:33:03;;;;;;;;;;;;;;;20.59;29.45;98362.31;5037119;28;1387;-78
2023/10/30 01:35:29;;;;;;;;;;;;;;;20.81;29.28;98365.56;5013074;28;1910;-78
2023/10/30 01:37:55;;;;;;;;;;;;;;;20.58;29.52;98357.09;4996826;28;1578;-78
2023/10/30 01:40:20;;;;;;;;;;;;;;;20.92;28.78;98359.72;4996691;28;1377;-78
2023/10/30 01:42:46;;;;;;;;;;;;;;;20.68;29.42;98362.56;4996973;28;1417;-77
2023/10/30 01:45:11;;;;;;;;;;;;;;;20.77;29.25;98367.66;4980097;28;1516;-78
2023/10/30 01:47:37;;;;;;;;;;;;;;;20.42;29.76;98367.00;5013099;28;1396;-78
2023/10/30 01:50:04;;;;;;;;;;;;;;;20.72;29.52;98371.75;4980206;28;1394;-78
2023/10/30 01:52:29;;;;;;;;;;;;;;;20.75;29.37;98373.75;4998602;28;1519;-78
2023/10/30 01:54:55;;;;;;;;;;;;;;;20.73;29.45;98369.75;5000154;28;1895;-78
2023/10/30 01:57:21;;;;;;;;;;;;;;;20.61;29.40;98367.53;5016318;28;1412;-78
2023/10/30 01:59:47;;;;;;;;;;;;;;;20.49;29.62;98368.94;5000169;28;1429;-78
2023/10/30 02:02:13;;;;;;;;;;;;;;;20.43;29.93;98362.16;4996685;28;1756;-77
2023/10/30 02:04:38;;;;;;;;;;;;;;;20.39;29.72;98362.19;4964498;28;1562;-78
2023/10/30 02:07:04;;;;;;;;;;;;;;;20.48;29.47;98365.31;4980400;28;1589;-78
2023/10/30 02:09:32;;;;;;;;;;;;;;;20.51;29.35;98363.63;4996965;28;1567;-78
2023/10/30 02:11:58;;;;;;;;;;;;;;;20.77;28.93;98359.16;4996335;28;1436;-77
2023/10/30 02:14:24;;;;;;;;;;;;;;;20.59;29.38;98356.66;4996736;28;1910;-77
2023/10/30 02:16:50;;;;;;;;;;;;;;;20.76;29.05;98361.19;4996476;28;1441;-78
2023/10/30 02:19:25;;;;;;;;;;;;;;;20.51;29.54;98358.00;4980287;28;1561;-78
2023/10/30 02:21:54;;;;;;;;;;;;;;;20.83;29.01;98365.13;4992783;28;1667;-78
2023/10/30 02:24:19;;;;;;;;;;;;;;;20.51;29.52;98370.09;4995868;28;1590;-78
2023/10/30 02:26:46;;;;;;;;;;;;;;;20.40;29.86;98363.00;4996279;28;1476;-78
2023/10/30 02:29:11;;;;;;;;;;;;;;;20.60;29.28;98377.25;4996283;28;1767;-77
2023/10/30 02:31:37;;;;;;;;;;;;;;;20.86;29.28;98381.25;4996352;28;1549;-78
2023/10/30 02:34:02;;;;;;;;;;;;;;;20.85;29.07;98376.81;4979884;28;1914;-78
2023/10/30 02:36:28;;;;;;;;;;;;;;;20.73;29.13;98376.22;4979930;28;1402;-78
2023/10/30 02:38:54;;;;;;;;;;;;;;;20.75;29.19;98379.41;5030622;28;1504;-78
2023/10/30 02:41:20;;;;;;;;;;;;;;;20.57;29.36;98378.88;5039761;28;1543;-78
2023/10/30 02:43:45;;;;;;;;;;;;;;;20.67;29.16;98377.91;5023160;28;1424;-78
2023/10/30 02:46:11;;;;;;;;;;;;;;;20.67;29.10;98372.25;5039639;28;1447;-77
2023/10/30 02:48:36;;;;;;;;;;;;;;;20.69;29.12;98375.47;5039820;28;1431;-77
2023/10/30 02:51:03;;;;;;;;;;;;;;;20.32;29.84;98372.81;5057078;28;1444;-78
2023/10/30 02:53:29;;;;;;;;;;;;;;;20.62;29.50;98369.91;5023384;28;1397;-78
2023/10/30 02:55:54;;;;;;;;;;;;;;;20.44;29.75;98370.19;5022939;28;1914;-78
2023/10/30 02:58:20;;;;;;;;;;;;;;;20.53;29.80;98366.84;4987914;28;1592;-78
2023/10/30 03:00:46;;;;;;;;;;;;;;;20.51;29.64;98364.44;4994378;28;1609;-78
2023/10/30 03:03:11;;;;;;;;;;;;;;;20.91;29.42;98364.56;4961849;28;1910;-78
2023/10/30 03:05:37;;;;;;;;;;;;;;;20.74;29.52;98360.03;4958294;28;1425;-78
2023/10/30 03:08:02;;;;;;;;;;;;;;;20.55;29.54;98364.38;4975349;28;1581;-78
2023/10/30 03:10:28;;;;;;;;;;;;;;;20.70;29.63;98371.41;4943264;28;1422;-78
2023/10/30 03:12:53;;;;;;;;;;;;;;;20.91;29.67;98372.25;4948243;28;1449;-78
2023/10/30 03:15:19;;;;;;;;;;;;;;;20.72;29.56;98368.94;4973546;28;1906;-78
2023/10/30 03:17:44;;;;;;;;;;;;;;;20.42;30.21;98366.22;4990939;28;1692;-76
2023/10/30 03:20:11;;;;;;;;;;;;;;;20.48;30.54;98370.16;4972925;28;1322;-78
2023/10/30 03:22:37;;;;;;;;;;;;;;;20.59;30.40;98370.78;4963888;28;1418;-78
2023/10/30 03:25:03;;;;;;;;;;;;;;;20.66;29.77;98365.00;4941928;29;1607;-78
2023/10/30 03:27:28;;;;;;;;;;;;;;;20.61;30.21;98368.31;4958725;28;1377;-78
2023/10/30 03:29:54;;;;;;;;;;;;;;;20.93;29.58;98378.28;4983685;28;1549;-78
2023/10/30 03:32:20;;;;;;;;;;;;;;;20.79;29.71;98371.66;4985602;28;1409;-77
2023/10/30 03:34:45;;;;;;;;;;;;;;;20.56;30.34;98371.63;4981693;28;1907;-78
2023/10/30 03:37:11;;;;;;;;;;;;;;;20.64;30.04;98370.31;4995052;28;1464;-78
2023/10/30 03:39:38;;;;;;;;;;;;;;;20.57;30.34;98367.56;4993960;28;1377;-77
2023/10/30 03:42:04;;;;;;;;;;;;;;;20.42;30.70;98363.38;4995006;28;1514;-78
2023/10/30 03:44:29;;;;;;;;;;;;;;;20.73;30.21;98364.91;4994721;28;1417;-78
2023/10/30 03:46:55;;;;;;;;;;;;;;;20.58;30.35;98357.88;4994798;28;1457;-78
2023/10/30 03:49:21;;;;;;;;;;;;;;;20.67;30.38;98360.94;4994913;28;1727;-77
2023/10/30 03:51:47;;;;;;;;;;;;;;;20.72;30.14;98356.81;4978404;28;1410;-78
2023/10/30 03:54:13;;;;;;;;;;;;;;;20.99;29.58;98365.25;4994562;28;1914;-78
2023/10/30 03:56:38;;;;;;;;;;;;;;;20.85;29.97;98362.69;5010984;28;1653;-78
2023/10/30 03:59:04;;;;;;;;;;;;;;;20.89;29.69;98364.22;4978093;28;1358;-78
2023/10/30 04:01:30;;;;;;;;;;;;;;;20.53;30.61;98356.34;4994518;28;1464;-78
2023/10/30 04:03:55;;;;;;;;;;;;;;;20.81;29.98;98357.88;4994479;28;1369;-78
2023/10/30 04:06:20;;;;;;;;;;;;;;;20.90;30.00;98356.53;5010755;28;1334;-78
2023/10/30 04:08:46;;;;;;;;;;;;;;;20.75;30.00;98356.78;5012765;28;1452;-78
2023/10/30 04:11:12;;;;;;;;;;;;;;;20.63;30.40;98363.06;5021653;28;1412;-77
2023/10/30 04:13:38;;;;;;;;;;;;;;;20.56;30.59;98365.97;5038327;28;1388;-78
2023/10/30 04:16:03;;;;;;;;;;;;;;;20.73;30.32;98356.41;5021729;28;1902;-78
2023/10/30 04:18:29;;;;;;;;;;;;;;;20.65;30.44;98362.63;5021325;28;1425;-77
2023/10/30 04:20:55;;;;;;;;;;;;;;;20.70;30.41;98365.75;5005082;28;1291;-78
2023/10/30 04:23:21;;;;;;;;;;;;;;;20.71;30.27;98364.50;5037873;28;1726;-78
2023/10/30 04:25:47;;;;;;;;;;;;;;;20.65;30.74;98366.25;5056104;28;1427;-77
2023/10/30 04:28:12;;;;;;;;;;;;;;;20.78;30.31;98369.28;5038240;28;1356;-78
2023/10/30 04:30:38;;;;;;;;;;;;;;;20.71;30.33;98367.34;4996992;28;1413;-78
2023/10/30 04:33:03;;;;;;;;;;;;;;;21.04;30.02;98370.41;4997316;28;1452;-78
2023/10/30 04:35:29;;;;;;;;;;;;;;;21.15;29.89;98362.53;4977685;28;1914;-78
2023/10/30 04:37:55;;;;;;;;;;;;;;;20.94;30.15;98363.72;4977630;28;1409;-78
2023/10/30 04:40:20;;;;;;;;;;;;;;;20.85;30.24;98366.31;4992531;28;1420;-78
2023/10/30 04:42:46;;;;;;;;;;;;;;;21.05;29.97;98367.16;4941884;29;1419;-78
2023/10/30 04:45:11;;;;;;;;;;;;;;;20.60;30.49;98363.91;4926348;29;1430;-78
2023/10/30 04:47:37;;;;;;;;;;;;;;;20.79;30.26;98368.03;4929652;29;1504;-78
2023/10/30 04:50:02;;;;;;;;;;;;;;;20.74;30.55;98360.03;4936446;29;1592;-78
2023/10/30 04:52:29;;;;;;;;;;;;;;;20.80;30.31;98361.94;4937046;29;1399;-78
2023/10/30 04:54:54;;;;;;;;;;;;;;;20.76;30.20;98364.03;4929119;29;1914;-78
2023/10/30 04:57:20;;;;;;;;;;;;;;;20.97;30.11;98367.69;4925264;29;1687;-78
2023/10/30 04:59:45;;;;;;;;;;;;;;;20.85;30.13;98377.63;4937881;29;1431;-78
2023/10/30 05:02:11;;;;;;;;;;;;;;;20.90;30.20;98367.84;4950575;28;1284;-78
2023/10/30 05:04:36;;;;;;;;;;;;;;;20.98;30.24;98374.94;4972745;28;1414;-78
2023/10/30 05:07:02;;;;;;;;;;;;;;;20.79;30.31;98370.88;4975818;28;1543;-77
2023/10/30 05:09:28;;;;;;;;;;;;;;;21.06;29.96;98373.59;4959038;28;1339;-78
2023/10/30 05:11:54;;;;;;;;;;;;;;;21.05;29.93;98383.31;4961630;28;1415;-78
2023/10/30 05:14:20;;;;;;;;;;;;;;;20.95;30.11;98376.63;5005126;28;1981;-77
2023/10/30 05:16:45;;;;;;;;;;;;;;;20.85;30.21;98382.47;5038132;28;1003;-78
2023/10/30 05:19:11;;;;;;;;;;;;;;;20.98;29.85;98389.09;5037964;28;1107;-78
2023/10/30 05:21:36;;;;;;;;;;;;;;;20.97;30.06;98381.84;5038003;28;934;-78
2023/10/30 05:24:02;;;;;;;;;;;;;;;20.76;30.34;98381.00;5054393;28;1308;-78
2023/10/30 05:26:27;;;;;;;;;;;;;;;21.04;29.90;98391.03;5038453;28;1138;-78
2023/10/30 05:28:53;;;;;;;;;;;;;;;21.17;29.61;98393.22;5059249;28;1011;-78
2023/10/30 05:31:18;;;;;;;;;;;;;;;21.27;29.43;98401.50;5025284;28;1119;-78
2023/10/30 05:33:44;;;;;;;;;;;;;;;21.04;29.87;98408.00;5024928;28;959;-78
2023/10/30 05:36:10;;;;;;;;;;;;;;;20.93;30.12;98407.34;5041576;28;1971;-78
2023/10/30 05:38:35;;;;;;;;;;;;;;;21.02;30.09;98403.97;5020263;28;1103;-78
2023/10/30 05:41:01;;;;;;;;;;;;;;;21.10;30.15;98411.13;5037313;28;1254;-78
2023/10/30 05:43:27;;;;;;;;;;;;;;;20.98;30.26;98408.91;5020153;28;1399;-77
2023/10/30 05:45:53;;;;;;;;;;;;;;;20.74;30.47;98414.56;5020193;28;1142;-78
2023/10/30 05:48:19;;;;;;;;;;;;;;;21.09;29.83;98415.19;5036700;28;1012;-78
2023/10/30 05:50:44;;;;;;;;;;;;;;;21.10;30.25;98416.78;5020080;28;958;-78
2023/10/30 05:53:10;;;;;;;;;;;;;;;21.11;30.32;98418.38;5020134;28;1119;-78
2023/10/30 05:55:35;;;;;;;;;;;;;;;21.02;30.40;98426.63;5036953;28;1894;-78
2023/10/30 05:58:01;;;;;;;;;;;;;;;20.94;30.33;98413.84;5036380;28;1106;-78
2023/10/30 06:00:26;;;;;;;;;;;;;;;21.18;30.17;98423.91;5036859;28;1127;-78
2023/10/30 06:02:53;;;;;;;;;;;;;;;21.13;29.98;98418.72;5019950;28;1146;-78
2023/10/30 06:05:18;;;;;;;;;;;;;;;21.01;30.27;98419.38;5020056;28;993;-78
2023/10/30 06:07:44;;;;;;;;;;;;;;;20.84;30.61;98420.47;4996650;28;954;-78
2023/10/30 06:10:11;;;;;;;;;;;;;;;21.02;30.39;98429.44;5000235;28;1207;-78
2023/10/30 06:12:37;;;;;;;;;;;;;;;20.93;30.49;98420.72;5000178;28;1246;-78
2023/10/30 06:15:02;;;;;;;;;;;;;;;20.94;30.66;98425.94;5016706;28;1973;-78
2023/10/30 06:17:28;;;;;;;;;;;;;;;20.75;30.94;98433.13;5016606;28;1114;-77
2023/10/30 06:19:53;;;;;;;;;;;;;;;20.81;30.83;98430.59;5016472;28;1118;-78
2023/10/30 06:22:19;;;;;;;;;;;;;;;20.96;30.56;98423.47;5016763;28;1032;-78
2023/10/30 06:24:44;;;;;;;;;;;;;;;21.00;30.66;98429.88;5016414;28;1234;-78
2023/10/30 06:27:10;;;;;;;;;;;;;;;21.01;30.68;98442.00;5016428;28;1151;-78
2023/10/30 06:29:36;;;;;;;;;;;;;;;21.00;30.63;98435.53;5016417;28;967;-78
2023/10/30 06:32:02;;;;;;;;;;;;;;;20.92;30.58;98438.91;4996873;28;971;-78
2023/10/30 06:34:28;;;;;;;;;;;;;;;20.79;30.81;98441.56;4996096;28;1914;-79
2023/10/30 06:36:53;;;;;;;;;;;;;;;21.00;30.86;98441.19;4996403;28;1072;-78
2023/10/30 06:39:20;;;;;;;;;;;;;;;20.95;30.76;98438.06;4996405;28;986;-78
2023/10/30 06:41:48;;;;;;;;;;;;;;;21.07;30.67;98445.94;4996328;28;931;-78
2023/10/30 06:44:16;;;;;;;;;;;;;;;21.10;30.63;98445.06;4998815;28;1314;-78
2023/10/30 06:46:44;;;;;;;;;;;;;;;20.75;31.02;98441.63;5016177;28;981;-78
2023/10/30 06:49:09;;;;;;;;;;;;;;;20.97;31.02;98452.56;4999838;28;949;-78
2023/10/30 06:51:35;;;;;;;;;;;;;;;21.04;30.57;98452.47;5015688;28;1168;-77
2023/10/30 06:54:00;;;;;;;;;;;;;;;21.04;30.90;98455.28;5012733;28;1288;-78
2023/10/30 06:56:27;;;;;;;;;;;;;;;21.06;30.62;98444.34;5015142;28;1969;-78
2023/10/30 06:58:52;;;;;;;;;;;;;;;20.95;31.07;98452.22;4999490;28;1391;-78
2023/10/30 07:01:18;;;;;;;;;;;;;;;21.10;30.91;98445.06;5015734;28;988;-78
2023/10/30 07:03:44;;;;;;;;;;;;;;;21.10;30.73;98445.06;5048200;28;1123;-78
2023/10/30 07:06:11;;;;;;;;;;;;;;;20.91;31.26;98448.63;5057550;28;970;-78
2023/10/30 07:08:36;;;;;;;;;;;;;;;20.81;31.23;98451.19;5040068;28;1026;-78
2023/10/30 07:11:02;;;;;;;;;;;;;;;20.87;31.10;98447.88;5039724;28;972;-78
2023/10/30 07:13:28;;;;;;;;;;;;;;;21.21;30.82;98440.03;5039663;28;975;-78
2023/10/30 07:15:53;;;;;;;;;;;;;;;21.28;30.62;98447.56;5039397;28;1902;-78
2023/10/30 07:18:19;;;;;;;;;;;;;;;21.33;30.38;98449.94;5023097;28;1067;-78
2023/10/30 07:20:44;;;;;;;;;;;;;;;21.37;30.31;98447.84;5039687;28;879;-78
2023/10/30 07:23:10;;;;;;;;;;;;;;;21.02;31.05;98452.06;5057382;28;939;-78
2023/10/30 07:25:35;;;;;;;;;;;;;;;20.93;31.21;98451.81;5039549;28;1029;-78
2023/10/30 07:28:01;;;;;;;;;;;;;;;21.12;30.65;98459.59;5057171;28;953;-78
2023/10/30 07:30:26;;;;;;;;;;;;;;;20.99;30.79;98455.78;5022621;28;1311;-78
2023/10/30 07:32:52;;;;;;;;;;;;;;;21.20;30.66;98452.56;5039444;28;1159;-78
2023/10/30 07:35:17;;;;;;;;;;;;;;;21.24;30.58;98458.16;5022685;28;1921;-78
2023/10/30 07:37:43;;;;;;;;;;;;;;;21.24;30.51;98456.16;5022836;28;1304;-77
2023/10/30 07:40:09;;;;;;;;;;;;;;;21.08;30.98;98461.66;5039738;28;1009;-78
2023/10/30 07:42:34;;;;;;;;;;;;;;;21.02;30.69;98464.19;5022940;28;1137;-78
2023/10/30 07:45:00;;;;;;;;;;;;;;;20.91;30.93;98459.94;4998359;28;1273;-78
2023/10/30 07:47:25;;;;;;;;;;;;;;;21.01;30.90;98454.09;4998504;28;980;-78
2023/10/30 07:49:51;;;;;;;;;;;;;;;21.30;30.27;98456.47;5014182;28;1014;-78
2023/10/30 07:52:16;;;;;;;;;;;;;;;21.18;30.85;98460.69;4998146;28;1027;-78
2023/10/30 07:54:42;;;;;;;;;;;;;;;21.24;30.65;98466.66;5014658;28;1979;-78
2023/10/30 07:57:09;;;;;;;;;;;;;;;21.17;30.59;98467.59;4997899;28;1216;-78
2023/10/30 07:59:35;;;;;;;;;;;;;;;21.11;30.46;98462.84;4982159;28;1052;-78
2023/10/30 08:02:01;;;;;;;;;;;;;;;21.05;30.98;98468.22;5014672;28;1019;-78
2023/10/30 08:04:27;;;;;;;;;;;;;;;21.21;30.68;98473.97;4998068;28;1446;-76
2023/10/30 08:06:52;;;;;;;;;;;;;;;21.04;30.79;98464.56;5014483;28;1160;-78
2023/10/30 08:09:18;;;;;;;;;;;;;;;21.23;30.54;98471.50;4998050;28;1003;-78
2023/10/30 08:11:43;;;;;;;;;;;;;;;20.96;31.02;98462.28;4997979;28;1095;-78
2023/10/30 08:14:09;;;;;;;;;;;;;;;21.39;30.38;98468.03;4998010;28;1116;-78
2023/10/30 08:16:35;;;;;;;;;;;;;;;21.22;30.31;98461.44;4997920;28;1910;-79
2023/10/30 08:19:01;;;;;;;;;;;;;;;21.13;30.87;98461.19;4998041;28;937;-78
2023/10/30 08:21:27;;;;;;;;;;;;;;;20.98;30.74;98466.28;5001726;28;979;-78
2023/10/30 08:23:52;;;;;;;;;;;;;;;21.02;31.06;98463.41;5038386;28;819;-78
2023/10/30 08:26:18;;;;;;;;;;;;;;;21.06;30.85;98464.13;5021937;28;1102;-78
2023/10/30 08:28:45;;;;;;;;;;;;;;;21.06;30.85;98464.94;5037989;28;1282;-78
2023/10/30 08:31:11;;;;;;;;;;;;;;;21.13;30.82;98455.53;5056034;28;794;-78
2023/10/30 08:33:36;;;;;;;;;;;;;;;21.00;31.14;98451.72;5021402;28;1214;-78
2023/10/30 08:36:02;;;;;;;;;;;;;;;21.34;30.30;98448.69;5021700;28;1962;-78
2023/10/30 08:38:28;;;;;;;;;;;;;;;21.13;30.58;98452.69;5055808;28;731;-78
2023/10/30 08:40:53;;;;;;;;;;;;;;;21.23;30.55;98448.88;5038158;28;1259;-78
2023/10/30 08:43:19;;;;;;;;;;;;;;;21.40;30.28;98452.66;5038069;28;951;-78
2023/10/30 08:45:44;;;;;;;;;;;;;;;20.99;30.75;98441.63;5021401;28;1311;-78
2023/10/30 08:48:11;;;;;;;;;;;;;;;20.93;31.03;98452.63;5037866;28;1076;-78
2023/10/30 08:50:36;;;;;;;;;;;;;;;21.10;31.08;98439.41;5022015;28;696;-78
2023/10/30 08:53:03;;;;;;;;;;;;;;;21.06;30.96;98439.47;5037712;28;1078;-78
2023/10/30 08:55:28;;;;;;;;;;;;;;;21.12;31.08;98436.94;5037819;28;1906;-78
2023/10/30 08:57:54;;;;;;;;;;;;;;;20.88;30.76;98401.41;5037716;28;703;-78
2023/10/30 09:00:19;;;;;;;;;;;;;;;21.22;30.78;98446.47;5021615;28;1118;-78
2023/10/30 09:02:45;;;;;;;;;;;;;;;20.85;31.28;98444.69;5058339;28;758;-78
2023/10/30 09:05:11;;;;;;;;;;;;;;;21.17;30.59;98438.47;5057338;28;972;-78
2023/10/30 09:07:36;;;;;;;;;;;;;;;21.29;30.49;98435.81;5040376;28;941;-78
2023/10/30 09:10:03;;;;;;;;;;;;;;;21.32;30.71;98435.00;5040419;28;921;-78
2023/10/30 09:12:28;;;;;;;;;;;;;;;21.04;30.85;98429.84;5057102;28;810;-78
2023/10/30 09:14:54;;;;;;;;;;;;;;;21.25;30.76;98429.44;5040186;28;1984;-78
2023/10/30 09:17:19;;;;;;;;;;;;;;;21.08;30.89;98424.88;5040423;28;1283;-77
2023/10/30 09:19:45;;;;;;;;;;;;;;;21.13;30.81;98421.56;5023738;28;1266;-78
2023/10/30 09:22:10;;;;;;;;;;;;;;;21.25;30.83;98418.13;5023731;28;1181;-77
2023/10/30 09:24:36;;;;;;;;;;;;;;;21.18;30.99;98418.22;5039889;28;794;-78
2023/10/30 09:27:01;;;;;;;;;;;;;;;21.10;31.21;98416.78;5057298;28;908;-78
2023/10/30 09:29:27;;;;;;;;;;;;;;;21.20;31.23;98418.63;5056967;28;1061;-78
2023/10/30 09:31:53;;;;;;;;;;;;;;;21.05;30.93;98414.44;5040017;28;878;-78
2023/10/30 09:34:18;;;;;;;;;;;;;;;21.01;31.15;98403.19;5040085;28;883;-78
2023/10/30 09:36:44;;;;;;;;;;;;;;;21.11;31.18;98409.88;5027252;28;829;-78
2023/10/30 09:39:09;;;;;;;;;;;;;;;21.30;31.00;98409.16;5016985;28;1093;-78
2023/10/30 09:41:43;;;;;;;;;;;;;;;21.16;31.23;98403.72;5033455;28;755;-78
2023/10/30 09:44:10;;;;;;;;;;;;;;;21.18;31.06;98406.13;5016218;28;1150;-78
2023/10/30 09:46:35;;;;;;;;;;;;;;;21.27;31.18;98409.19;5016847;28;732;-78
2023/10/30 09:49:01;;;;;;;;;;;;;;;21.07;31.36;98406.31;5033184;28;1143;-78
2023/10/30 09:51:26;;;;;;;;;;;;;;;20.97;31.63;98396.00;5016721;28;1072;-78
2023/10/30 09:53:53;;;;;;;;;;;;;;;21.21;31.32;98397.56;5033273;28;914;-78
2023/10/30 09:56:19;;;;;;;;;;;;;;;21.28;31.08;98397.44;4996604;28;1939;-78
2023/10/30 09:58:44;;;;;;;;;;;;;;;21.12;31.20;98400.16;4997007;28;802;-78
2023/10/30 10:01:10;;;;;;;;;;;;;;;21.38;31.02;98387.16;4980682;28;771;-78
2023/10/30 10:03:35;;;;;;;;;;;;;;;21.31;30.73;98376.00;4997077;28;807;-78
2023/10/30 10:06:01;;;;;;;;;;;;;;;21.40;30.85;98383.91;4964869;28;1240;-78
2023/10/30 10:08:27;;;;;;;;;;;;;;;20.91;31.46;98386.41;4976945;28;926;-78
2023/10/30 10:11:01;;;;;;;;;;;;;;;21.30;30.85;98375.19;4977367;28;1213;-78
2023/10/30 10:13:27;;;;;;;;;;;;;;;21.08;31.25;98382.44;4976379;28;827;-78
2023/10/30 10:15:53;;;;;;;;;;;;;;;21.41;30.77;98368.53;4964362;28;1914;-78
2023/10/30 10:18:25;;;;;;;;;;;;;;;21.15;31.21;98379.50;4996581;28;850;-78
2023/10/30 10:20:58;;;;;;;;;;;;;;;21.20;31.10;98373.34;4980395;28;1127;-78
2023/10/30 10:23:25;;;;;;;;;;;;;;;21.34;31.17;98369.44;4980361;28;908;-78
2023/10/30 10:25:55;;;;;;;;;;;;;;;21.30;31.22;98375.19;4996614;28;755;-78
2023/10/30 10:28:23;;;;;;;;;;;;;;;21.34;30.88;98366.63;4980327;28;879;-78
2023/10/30 10:30:49;;;;;;;;;;;;;;;21.26;31.19;98379.28;4996551;28;863;-78
2023/10/30 10:33:15;;;;;;;;;;;;;;;21.24;31.21;98376.91;4996569;28;810;-78
2023/10/30 10:35:41;;;;;;;;;;;;;;;21.08;31.43;98363.44;4996470;28;1914;-78
2023/10/30 10:38:08;;;;;;;;;;;;;;;21.02;31.75;98370.03;4976432;28;912;-78
2023/10/30 10:40:33;;;;;;;;;;;;;;;21.27;31.14;98363.91;4976896;28;802;-78
2023/10/30 10:42:59;;;;;;;;;;;;;;;21.30;31.15;98375.19;4988804;28;921;-78
2023/10/30 10:45:25;;;;;;;;;;;;;;;21.35;31.26;98367.41;5015687;28;1164;-78
2023/10/30 10:47:52;;;;;;;;;;;;;;;21.19;31.21;98368.91;4976343;28;983;-78
2023/10/30 10:50:18;;;;;;;;;;;;;;;21.27;31.01;98369.56;4976615;28;870;-78
2023/10/30 10:52:43;;;;;;;;;;;;;;;21.30;31.07;98363.88;4976684;28;957;-78
2023/10/30 10:55:09;;;;;;;;;;;;;;;21.35;31.13;98364.59;4976543;28;1910;-78
2023/10/30 10:57:48;;;;;;;;;;;;;;;21.50;30.88;98361.06;4976180;28;983;-78
2023/10/30 11:00:13;;;;;;;;;;;;;;;21.41;31.00;98351.53;4944274;28;1172;-78
2023/10/30 11:02:39;;;;;;;;;;;;;;;21.17;31.28;98351.56;4944335;28;998;-78
2023/10/30 11:05:08;;;;;;;;;;;;;;;21.29;31.08;98356.56;4928473;28;1648;-78
2023/10/30 11:08:09;;;;;;;;;;;;;;;21.29;31.36;98350.09;4960201;28;1183;-78
2023/10/30 11:10:48;;;;;;;;;;;;;;;21.40;31.05;98358.41;4937749;29;745;-78
2023/10/30 11:13:26;;;;;;;;;;;;;;;21.51;31.08;98348.50;4890339;29;1037;-78
2023/10/30 11:16:07;;;;;;;;;;;;;;;21.54;31.01;98355.31;4949631;28;1915;-78
2023/10/30 11:18:33;;;;;;;;;;;;;;;21.26;31.50;98351.00;4956339;29;893;-78
2023/10/30 11:21:12;;;;;;;;;;;;;;;21.21;31.54;98349.47;4956628;28;882;-78
2023/10/30 11:23:48;;;;;;;;;;;;;;;21.52;31.20;98340.78;4940217;28;1192;-78
2023/10/30 11:26:40;;;;;;;;;;;;;;;21.37;31.55;98333.81;4973157;28;1128;-78
2023/10/30 11:29:06;;;;;;;;;;;;;;;21.30;31.40;98334.78;4989711;28;1187;-78
2023/10/30 11:31:34;;;;;;;;;;;;;;;21.48;31.34;98337.22;4995083;28;932;-78
2023/10/30 11:34:12;;;;;;;;;;;;;;;21.43;31.21;98337.75;4995074;28;1147;-78
2023/10/30 11:36:38;;;;;;;;;;;;;;;21.12;31.97;98323.75;4995084;28;1923;-78
2023/10/30 11:39:03;;;;;;;;;;;;;;;21.39;31.51;98332.16;4994944;28;951;-78
2023/10/30 11:41:29;;;;;;;;;;;;;;;21.28;31.55;98326.66;4994906;28;811;-78
2023/10/30 11:44:08;;;;;;;;;;;;;;;21.25;31.79;98324.72;5002834;28;1136;-78
2023/10/30 11:46:44;;;;;;;;;;;;;;;21.44;31.45;98325.97;5018337;28;818;-78
2023/10/30 11:49:12;;;;;;;;;;;;;;;21.38;31.38;98318.44;5001709;28;1066;-78
2023/10/30 11:51:38;;;;;;;;;;;;;;;21.43;31.15;98326.41;5017805;28;864;-78
2023/10/30 11:54:04;;;;;;;;;;;;;;;21.40;31.18;98325.28;5001097;28;1276;-78
2023/10/30 11:56:29;;;;;;;;;;;;;;;21.44;31.28;98322.34;5017321;28;1981;-78
2023/10/30 11:58:55;;;;;;;;;;;;;;;21.45;31.11;98319.09;5017878;28;928;-78
2023/10/30 12:01:21;;;;;;;;;;;;;;;21.69;31.00;98319.78;5017392;28;729;-78
2023/10/30 12:03:47;;;;;;;;;;;;;;;21.39;31.26;98315.16;5017498;28;1044;-78
2023/10/30 12:06:13;;;;;;;;;;;;;;;21.47;31.10;98321.47;5001094;28;1096;-78
2023/10/30 12:08:38;;;;;;;;;;;;;;;21.27;31.24;98312.97;5000836;28;1260;-78
2023/10/30 12:11:04;;;;;;;;;;;;;;;21.40;31.12;98310.28;5020329;28;1222;-78
2023/10/30 12:13:30;;;;;;;;;;;;;;;21.36;31.31;98321.72;5038152;28;928;-78
2023/10/30 12:15:55;;;;;;;;;;;;;;;21.52;30.86;98306.81;5055984;28;1977;-78
2023/10/30 12:18:22;;;;;;;;;;;;;;;21.60;30.90;98313.91;5037887;28;758;-78
2023/10/30 12:20:47;;;;;;;;;;;;;;;21.55;30.63;98308.75;5022015;28;1196;-78
2023/10/30 12:23:13;;;;;;;;;;;;;;;21.32;31.40;98299.13;5021861;28;1203;-78
2023/10/30 12:25:39;;;;;;;;;;;;;;;21.29;31.46;98299.97;5021592;28;851;-78
2023/10/30 12:28:05;;;;;;;;;;;;;;;21.25;31.24;98299.25;5037894;28;1057;-78
2023/10/30 12:30:31;;;;;;;;;;;;;;;21.36;31.24;98303.94;5021882;28;743;-78
2023/10/30 12:32:57;;;;;;;;;;;;;;;21.44;31.16;98294.03;5021557;28;1159;-78
2023/10/30 12:35:23;;;;;;;;;;;;;;;21.61;30.67;98298.53;5055554;28;1971;-78
2023/10/30 12:37:48;;;;;;;;;;;;;;;21.35;31.25;98296.66;5038274;28;926;-78
2023/10/30 12:40:14;;;;;;;;;;;;;;;21.43;30.98;98292.44;5055613;28;814;-78
2023/10/30 12:42:40;;;;;;;;;;;;;;;21.58;30.70;98288.06;5021941;28;779;-78
2023/10/30 12:45:07;;;;;;;;;;;;;;;21.60;30.71;98291.25;5055641;28;1021;-78
2023/10/30 12:47:33;;;;;;;;;;;;;;;21.39;31.18;98288.88;5038002;28;724;-78
2023/10/30 12:49:58;;;;;;;;;;;;;;;21.57;30.98;98280.81;5055553;28;841;-78
2023/10/30 12:52:24;;;;;;;;;;;;;;;21.43;31.12;98286.78;5037531;28;1246;-78
2023/10/30 12:54:49;;;;;;;;;;;;;;;21.49;30.79;98285.03;5055439;28;1973;-78